createdAt,value
2018-12-07T00:00:35.260Z,961.01
2018-12-07T00:01:35.334Z,961.1
2018-12-07T00:02:35.450Z,960.83
2018-12-07T00:03:35.287Z,961.14
2018-12-07T00:04:35.270Z,960.92
2018-12-07T00:05:35.453Z,960.21
2018-12-07T00:06:35.265Z,960.63
2018-12-07T00:07:35.326Z,960.26
2018-12-07T00:08:37.142Z,960.17
2018-12-07T00:09:35.477Z,960.36
2018-12-07T00:10:35.253Z,959.9
2018-12-07T00:11:35.166Z,959.81
2018-12-07T00:12:35.350Z,959.41
2018-12-07T00:13:35.259Z,959.49
2018-12-07T00:14:35.319Z,959.28
2018-12-07T00:15:35.216Z,959.1
2018-12-07T00:16:35.217Z,959.1
2018-12-07T00:18:35.233Z,958.94
2018-12-07T00:19:35.300Z,958.52
2018-12-07T00:20:35.493Z,959.09
2018-12-07T00:21:35.406Z,958.66
2018-12-07T00:22:35.476Z,958.73
2018-12-07T00:23:35.407Z,958.54
2018-12-07T00:24:34.943Z,958.4
2018-12-07T00:25:34.973Z,957.98
2018-12-07T00:26:34.890Z,958.11
2018-12-07T00:27:34.921Z,958.26
2018-12-07T00:28:34.951Z,958.1
2018-12-07T00:29:34.920Z,957.57
2018-12-07T00:30:34.943Z,957.82
2018-12-07T00:31:34.924Z,957.92
2018-12-07T00:32:34.915Z,957.6
2018-12-07T00:33:35.011Z,957.33
2018-12-07T00:34:34.917Z,956.98
2018-12-07T00:35:34.951Z,956.89
2018-12-07T00:36:35.232Z,956.82
2018-12-07T00:37:34.930Z,956.7
2018-12-07T00:38:34.943Z,956.57
2018-12-07T00:39:34.919Z,956.19
2018-12-07T00:40:34.950Z,955.72
2018-12-07T00:41:34.924Z,955.65
2018-12-07T00:42:34.918Z,955
2018-12-07T00:43:35.270Z,954.81
2018-12-07T00:44:34.947Z,954.92
2018-12-07T00:45:34.940Z,955.04
2018-12-07T00:46:34.920Z,954.55
2018-12-07T00:47:34.937Z,953.62
2018-12-07T00:48:34.946Z,953.91
2018-12-07T00:49:34.931Z,953.86
2018-12-07T00:50:34.982Z,953.72
2018-12-07T00:51:34.953Z,953.55
2018-12-07T00:52:34.968Z,953.49
2018-12-07T00:53:34.968Z,953.04
2018-12-07T00:54:34.944Z,952.91
2018-12-07T00:55:34.954Z,952.78
2018-12-07T00:56:34.937Z,952.51
2018-12-07T00:57:34.967Z,952.93
2018-12-07T00:58:34.969Z,951.93
2018-12-07T00:59:34.965Z,951.9
2018-12-07T01:00:35.038Z,951.89
2018-12-07T01:01:34.955Z,951.66
2018-12-07T01:02:34.993Z,951.8
2018-12-07T01:03:34.955Z,951.89
2018-12-07T01:04:34.964Z,951.82
2018-12-07T01:05:34.951Z,952.02
2018-12-07T01:06:34.965Z,951.72
2018-12-07T01:07:34.993Z,951.84
2018-12-07T01:08:34.988Z,952.42
2018-12-07T01:09:34.976Z,951.95
2018-12-07T01:10:35.008Z,952.17
2018-12-07T01:11:34.955Z,952.52
2018-12-07T01:12:34.961Z,952.96
2018-12-07T01:13:35.001Z,952.63
2018-12-07T01:14:35.389Z,952.8
2018-12-07T01:15:34.991Z,953.02
2018-12-07T01:17:35.009Z,952.93
2018-12-07T01:18:34.976Z,953.08
2018-12-07T01:19:34.985Z,953.18
2018-12-07T01:20:35.017Z,953.52
2018-12-07T01:21:35.045Z,953.38
2018-12-07T01:22:34.990Z,953.59
2018-12-07T01:23:34.986Z,953.81
2018-12-07T01:24:35.017Z,953.7
2018-12-07T01:25:35.000Z,954.12
2018-12-07T01:26:35.022Z,954.36
2018-12-07T01:27:35.013Z,954.44
2018-12-07T01:36:23.821Z,955.36
2018-12-07T01:37:23.838Z,955.84
2018-12-07T01:38:23.810Z,955.8
2018-12-07T01:39:23.804Z,955.88
2018-12-07T01:40:23.793Z,955.83
2018-12-07T01:41:23.960Z,956.47
2018-12-07T01:42:23.829Z,956.56
2018-12-07T01:43:23.804Z,956.63
2018-12-07T01:44:23.817Z,956.72
2018-12-07T01:45:23.803Z,956.6
2018-12-07T01:46:23.848Z,957.29
2018-12-07T01:47:23.827Z,957.49
2018-12-07T01:48:23.829Z,957.77
2018-12-07T01:49:23.831Z,958.08
2018-12-07T01:50:23.849Z,958.25
2018-12-07T01:51:23.852Z,958.77
2018-12-07T01:52:23.820Z,959.37
2018-12-07T01:53:23.840Z,959.2
2018-12-07T01:54:23.832Z,959.51
2018-12-07T01:55:23.831Z,959.67
2018-12-07T01:56:24.186Z,960.44
2018-12-07T01:57:23.845Z,960.52
2018-12-07T01:58:23.863Z,960.8
2018-12-07T01:59:23.834Z,960.68
2018-12-07T02:00:23.835Z,961.27
2018-12-07T02:01:23.844Z,961.69
2018-12-07T02:02:23.850Z,962.33
2018-12-07T02:03:23.911Z,962.76
2018-12-07T02:04:23.826Z,962.83
2018-12-07T02:05:23.869Z,963.48
2018-12-07T02:06:23.859Z,963.63
2018-12-07T02:07:23.922Z,964.17
2018-12-07T02:08:23.834Z,964.69
2018-12-07T02:09:23.856Z,964.92
2018-12-07T02:10:23.850Z,965.51
2018-12-07T02:11:23.856Z,966.18
2018-12-07T02:12:23.891Z,966.63
2018-12-07T02:13:23.869Z,967.3
2018-12-07T02:14:23.868Z,967.46
2018-12-07T02:15:23.867Z,968.2
2018-12-07T02:16:23.852Z,968.6
2018-12-07T02:17:23.857Z,969.03
2018-12-07T02:18:23.895Z,969.92
2018-12-07T02:19:23.903Z,970.22
2018-12-07T02:20:23.895Z,970.55
2018-12-07T02:21:23.941Z,971.2
2018-12-07T02:22:26.323Z,971.54
2018-12-07T02:23:23.871Z,971.87
2018-12-07T02:24:23.868Z,972.26
2018-12-07T02:25:23.880Z,972.39
2018-12-07T02:26:23.904Z,972.88
2018-12-07T02:27:23.904Z,973.02
2018-12-07T02:28:23.905Z,973
2018-12-07T02:29:23.875Z,973.86
2018-12-07T02:30:23.875Z,973.94
2018-12-07T02:31:23.878Z,974.17
2018-12-07T02:32:23.901Z,974.79
2018-12-07T02:33:24.185Z,975.16
2018-12-07T02:36:31.203Z,975.66
2018-12-07T02:36:43.895Z,976.05
2018-12-07T02:37:43.900Z,977.21
2018-12-07T02:38:43.877Z,977.04
2018-12-07T02:39:43.896Z,977.54
2018-12-07T02:40:43.918Z,977.68
2018-12-07T02:41:43.930Z,978.19
2018-12-07T02:42:43.912Z,978.52
2018-12-07T02:43:43.884Z,978.55
2018-12-07T02:44:43.921Z,978.93
2018-12-07T02:45:43.887Z,979.26
2018-12-07T02:46:43.917Z,979.45
2018-12-07T02:47:43.883Z,979.75
2018-12-07T02:48:43.914Z,979.95
2018-12-07T02:50:43.891Z,980.72
2018-12-07T02:51:43.905Z,981.07
2018-12-07T02:56:14.104Z,982.09
2018-12-07T02:57:16.699Z,982.15
2018-12-07T02:58:14.092Z,982.78
2018-12-07T02:59:14.096Z,983.25
2018-12-07T03:00:14.396Z,983.52
2018-12-07T03:01:14.081Z,983.68
2018-12-07T03:02:14.095Z,984.09
2018-12-07T03:03:14.106Z,984.05
2018-12-07T03:04:14.123Z,983.92
2018-12-07T03:05:14.105Z,984.24
2018-12-07T03:06:14.134Z,984.85
2018-12-07T03:07:14.182Z,984.78
2018-12-07T03:08:14.087Z,984.96
2018-12-07T03:09:15.718Z,984.97
2018-12-07T03:10:26.048Z,985.12
2018-12-07T03:11:14.093Z,985.36
2018-12-07T03:12:14.101Z,985.44
2018-12-07T03:13:14.121Z,985.55
2018-12-07T03:14:14.156Z,985.66
2018-12-07T03:15:14.102Z,985.81
2018-12-07T03:16:14.162Z,985.72
2018-12-07T03:17:14.106Z,985.98
2018-12-07T03:18:14.194Z,986.23
2018-12-07T03:19:14.196Z,986.3
2018-12-07T03:20:24.957Z,986.37
2018-12-07T03:21:25.321Z,986.74
2018-12-07T03:22:24.943Z,986.5
2018-12-07T03:23:24.966Z,987.06
2018-12-07T03:24:24.950Z,986.79
2018-12-07T03:25:24.925Z,987.51
2018-12-07T03:26:24.933Z,987.36
2018-12-07T03:27:24.959Z,987.69
2018-12-07T03:28:24.961Z,987.31
2018-12-07T03:29:24.979Z,987.66
2018-12-07T03:30:25.000Z,987.41
2018-12-07T03:31:25.026Z,987.32
2018-12-07T03:32:24.931Z,987.64
2018-12-07T03:33:24.991Z,987.51
2018-12-07T03:34:24.955Z,988.02
2018-12-07T03:35:24.959Z,987.74
2018-12-07T03:36:24.970Z,988.22
2018-12-07T03:37:24.973Z,988.12
2018-12-07T03:38:24.974Z,988.36
2018-12-07T03:39:24.975Z,988.27
2018-12-07T03:40:25.023Z,988.65
2018-12-07T03:41:24.955Z,988.5
2018-12-07T03:42:25.006Z,988.38
2018-12-07T03:43:24.972Z,988.67
2018-12-07T03:44:24.998Z,988.47
2018-12-07T03:46:24.982Z,988.7
2018-12-07T03:48:24.968Z,988.67
2018-12-07T03:49:24.983Z,988.32
2018-12-07T03:50:24.985Z,988.54
2018-12-07T03:51:24.970Z,988.5
2018-12-07T03:52:24.965Z,988.57
2018-12-07T03:53:24.994Z,988.68
2018-12-07T03:54:24.984Z,988.54
2018-12-07T03:55:25.013Z,988.41
2018-12-07T03:56:25.227Z,988.39
2018-12-07T03:57:26.313Z,988.52
2018-12-07T03:58:25.170Z,988.49
2018-12-07T03:59:25.013Z,988.26
2018-12-07T04:00:25.023Z,988.34
2018-12-07T04:01:24.970Z,988.7
2018-12-07T04:02:24.996Z,988.43
2018-12-07T04:03:25.005Z,987.94
2018-12-07T04:04:25.003Z,987.87
2018-12-07T04:05:25.027Z,988.01
2018-12-07T04:06:25.007Z,987.86
2018-12-07T04:07:30.015Z,988.16
2018-12-07T04:08:25.002Z,988.21
2018-12-07T04:09:25.009Z,987.94
2018-12-07T04:10:25.006Z,988.15
2018-12-07T04:11:25.316Z,987.93
2018-12-07T04:12:25.042Z,987.91
2018-12-07T04:13:25.032Z,988.1
2018-12-07T04:14:25.049Z,988.09
2018-12-07T04:15:25.133Z,988.19
2018-12-07T04:16:25.082Z,988.23
2018-12-07T04:17:25.075Z,988.63
2018-12-07T04:18:25.017Z,988.58
2018-12-07T04:19:25.037Z,988.61
2018-12-07T04:20:25.046Z,988.72
2018-12-07T04:21:25.103Z,989.05
2018-12-07T04:22:25.007Z,989.22
2018-12-07T04:23:28.869Z,989.26
2018-12-07T04:24:25.015Z,989.18
2018-12-07T04:25:29.891Z,989.35
2018-12-07T04:26:25.009Z,989.49
2018-12-07T04:27:25.039Z,989.32
2018-12-07T04:28:25.023Z,989.62
2018-12-07T04:29:25.116Z,989.64
2018-12-07T04:30:25.084Z,989.41
2018-12-07T04:31:25.026Z,989.71
2018-12-07T04:32:25.062Z,989.79
2018-12-07T04:33:25.338Z,989.92
2018-12-07T04:34:25.235Z,990.11
2018-12-07T04:35:25.054Z,990.14
2018-12-07T04:36:25.059Z,990.5
2018-12-07T04:37:25.068Z,990.57
2018-12-07T04:38:25.074Z,990.78
2018-12-07T04:39:25.080Z,990.42
2018-12-07T04:40:25.066Z,990.99
2018-12-07T04:41:25.076Z,990.91
2018-12-07T04:42:25.155Z,991.04
2018-12-07T04:43:25.081Z,991.35
2018-12-07T04:44:25.067Z,991.49
2018-12-07T04:45:25.060Z,991.66
2018-12-07T04:46:25.053Z,992.11
2018-12-07T04:47:25.088Z,992.14
2018-12-07T04:48:25.118Z,992.22
2018-12-07T04:49:25.134Z,992.09
2018-12-07T04:50:25.075Z,992.69
2018-12-07T04:51:25.099Z,992.65
2018-12-07T04:52:25.078Z,992.82
2018-12-07T04:53:25.071Z,992.39
2018-12-07T04:54:25.092Z,992.77
2018-12-07T04:55:25.194Z,992.97
2018-12-07T04:56:25.103Z,992.99
2018-12-07T04:57:25.090Z,993.19
2018-12-07T04:58:25.078Z,993.13
2018-12-07T04:59:25.114Z,993.17
2018-12-07T05:00:25.065Z,993.12
2018-12-07T05:01:25.071Z,993.14
2018-12-07T05:02:25.103Z,993.34
2018-12-07T05:03:26.430Z,993.48
2018-12-07T05:04:25.080Z,993.77
2018-12-07T05:05:25.098Z,993.74
2018-12-07T05:06:25.094Z,994.22
2018-12-07T05:07:25.088Z,993.83
2018-12-07T05:08:25.089Z,994.06
2018-12-07T05:09:25.089Z,993.97
2018-12-07T05:10:25.138Z,994.49
2018-12-07T05:11:25.140Z,994.32
2018-12-07T05:12:25.108Z,994.82
2018-12-07T05:13:25.342Z,994.76
2018-12-07T05:14:25.214Z,994.86
2018-12-07T05:15:25.273Z,995.45
2018-12-07T05:16:25.121Z,995.38
2018-12-07T05:17:25.109Z,995.6
2018-12-07T05:19:25.125Z,995.8
2018-12-07T05:21:25.098Z,995.94
2018-12-07T05:22:25.111Z,996.1
2018-12-07T05:23:25.126Z,996.26
2018-12-07T05:24:25.134Z,996.4
2018-12-07T05:25:25.118Z,996.51
2018-12-07T05:27:25.134Z,996.63
2018-12-07T05:29:25.136Z,996.91
2018-12-07T05:30:25.133Z,997.27
2018-12-07T05:31:25.183Z,997.48
2018-12-07T05:32:25.173Z,997.47
2018-12-07T05:33:25.148Z,997.64
2018-12-07T05:34:25.321Z,997.65
2018-12-07T05:35:25.146Z,997.86
2018-12-07T05:36:25.153Z,997.84
2018-12-07T05:37:25.145Z,997.71
2018-12-07T05:38:25.138Z,998.2
2018-12-07T05:39:25.163Z,998.2
2018-12-07T05:40:25.151Z,997.99
2018-12-07T05:41:25.142Z,998.25
2018-12-07T05:42:25.168Z,998.56
2018-12-07T05:43:25.156Z,998.75
2018-12-07T05:44:25.163Z,998.46
2018-12-07T05:45:25.155Z,998.67
2018-12-07T05:46:25.148Z,998.59
2018-12-07T05:47:25.180Z,998.75
2018-12-07T05:48:25.144Z,998.46
2018-12-07T05:49:25.149Z,998.82
2018-12-07T05:50:25.153Z,999.05
2018-12-07T05:51:25.173Z,999.28
2018-12-07T05:52:25.174Z,999.57
2018-12-07T05:53:25.153Z,999.44
2018-12-07T05:54:25.144Z,999.75
2018-12-07T05:55:25.176Z,1000.02
2018-12-07T05:56:25.167Z,1000.6
2018-12-07T05:57:25.171Z,1000.81
2018-12-07T05:58:25.193Z,1000.45
2018-12-07T05:59:25.156Z,1000.75
2018-12-07T06:00:25.197Z,1001.18
2018-12-07T06:01:25.160Z,1001.34
2018-12-07T06:02:25.182Z,1001.48
2018-12-07T06:03:25.271Z,1001.58
2018-12-07T06:04:25.183Z,1002.02
2018-12-07T06:05:25.878Z,1002.06
2018-12-07T06:06:25.185Z,1002.4
2018-12-07T06:07:25.179Z,1002.58
2018-12-07T06:08:25.170Z,1002.67
2018-12-07T06:09:25.187Z,1002.74
2018-12-07T06:10:26.078Z,1002.93
2018-12-07T06:11:25.187Z,1003.07
2018-12-07T06:12:25.184Z,1003
2018-12-07T06:13:25.638Z,1003.16
2018-12-07T06:14:25.179Z,1002.95
2018-12-07T06:15:25.179Z,1003.37
2018-12-07T06:16:25.183Z,1003.44
2018-12-07T06:17:25.265Z,1003.64
2018-12-07T06:18:25.210Z,1003.48
2018-12-07T06:19:25.184Z,1003.84
2018-12-07T06:20:25.212Z,1004.37
2018-12-07T06:21:25.216Z,1003.83
2018-12-07T06:22:31.084Z,1004.31
2018-12-07T06:23:25.216Z,1004.75
2018-12-07T06:24:25.203Z,1004.67
2018-12-07T06:25:25.248Z,1004.58
2018-12-07T06:26:25.214Z,1004.94
2018-12-07T06:27:25.504Z,1005.24
2018-12-07T06:28:25.228Z,1005.38
2018-12-07T06:29:25.238Z,1005.39
2018-12-07T06:30:25.212Z,1005.79
2018-12-07T06:31:25.252Z,1005.84
2018-12-07T06:32:25.227Z,1006.26
2018-12-07T06:33:25.215Z,1006.31
2018-12-07T06:34:25.242Z,1006.29
2018-12-07T06:35:25.254Z,1006.5
2018-12-07T06:36:25.222Z,1006.63
2018-12-07T06:37:25.258Z,1006.75
2018-12-07T06:38:25.368Z,1006.93
2018-12-07T06:39:25.236Z,1007.11
2018-12-07T06:40:25.243Z,1007.26
2018-12-07T06:41:25.557Z,1007.5
2018-12-07T06:42:25.261Z,1007.56
2018-12-07T06:43:25.238Z,1007.65
2018-12-07T06:44:25.231Z,1007.81
2018-12-07T06:45:25.289Z,1008.03
2018-12-07T06:46:25.248Z,1008.37
2018-12-07T06:47:25.309Z,1008.51
2018-12-07T06:48:25.275Z,1008.77
2018-12-07T06:49:25.283Z,1008.64
2018-12-07T06:50:25.226Z,1008.81
2018-12-07T06:51:25.230Z,1008.65
2018-12-07T06:52:25.252Z,1008.8
2018-12-07T06:53:25.264Z,1008.81
2018-12-07T06:54:25.244Z,1009
2018-12-07T06:55:25.223Z,1008.91
2018-12-07T06:56:25.253Z,1009.27
2018-12-07T06:57:25.670Z,1009.21
2018-12-07T06:58:25.255Z,1009.33
2018-12-07T06:59:25.244Z,1009.15
2018-12-07T07:00:25.248Z,1009.57
2018-12-07T07:01:25.291Z,1009.67
2018-12-07T07:02:25.457Z,1009.57
2018-12-07T07:03:25.260Z,1009.86
2018-12-07T07:04:25.269Z,1009.77
2018-12-07T07:05:25.266Z,1009.87
2018-12-07T07:06:25.249Z,1009.81
2018-12-07T07:07:25.277Z,1009.62
2018-12-07T07:08:25.268Z,1009.93
2018-12-07T07:09:25.306Z,1009.82
2018-12-07T07:10:25.270Z,1009.6
2018-12-07T07:11:25.460Z,1009.79
2018-12-07T07:12:25.271Z,1009.76
2018-12-07T07:13:25.274Z,1009.83
2018-12-07T07:14:25.281Z,1009.9
2018-12-07T07:15:25.299Z,1010
2018-12-07T07:16:25.286Z,1010.24
2018-12-07T07:17:25.281Z,1010.6
2018-12-07T07:18:25.293Z,1010.24
2018-12-07T07:19:25.289Z,1010.28
2018-12-07T07:20:25.314Z,1010.51
2018-12-07T07:21:25.344Z,1010.4
2018-12-07T07:22:25.276Z,1010.36
2018-12-07T07:23:25.282Z,1010.29
2018-12-07T07:24:25.272Z,1009.91
2018-12-07T07:25:25.306Z,1009.7
2018-12-07T07:26:25.299Z,1009.8
2018-12-07T07:27:25.634Z,1009.71
2018-12-07T07:28:25.284Z,1009.77
2018-12-07T07:29:25.294Z,1009.61
2018-12-07T07:30:25.327Z,1009.57
2018-12-07T07:31:25.308Z,1009.71
2018-12-07T07:32:25.310Z,1009.7
2018-12-07T07:33:25.318Z,1009.58
2018-12-07T07:34:25.299Z,1009.83
2018-12-07T07:35:25.362Z,1009.43
2018-12-07T07:36:25.303Z,1009.46
2018-12-07T07:37:25.328Z,1009.15
2018-12-07T07:38:25.706Z,1009.25
2018-12-07T07:39:25.311Z,1009.6
2018-12-07T07:40:25.331Z,1009.45
2018-12-07T07:41:25.316Z,1009.41
2018-12-07T07:42:25.343Z,1009.43
2018-12-07T07:43:25.399Z,1009.23
2018-12-07T07:44:25.324Z,1009.43
2018-12-07T07:45:25.338Z,1009.42
2018-12-07T07:46:25.319Z,1009.35
2018-12-07T07:47:25.314Z,1009.54
2018-12-07T07:48:25.321Z,1009.15
2018-12-07T07:49:25.337Z,1008.86
2018-12-07T07:50:25.395Z,1008.93
2018-12-07T07:51:25.334Z,1008.79
2018-12-07T07:52:25.439Z,1008.75
2018-12-07T07:53:25.376Z,1009.26
2018-12-07T07:54:25.350Z,1008.93
2018-12-07T07:55:25.445Z,1008.83
2018-12-07T07:56:31.171Z,1009.04
2018-12-07T07:57:25.384Z,1008.69
2018-12-07T07:58:25.374Z,1008.65
2018-12-07T07:59:25.417Z,1008.95
2018-12-07T08:00:25.432Z,1008.46
2018-12-07T08:01:25.366Z,1008.78
2018-12-07T08:08:06.400Z,1008.81
2018-12-07T08:09:06.355Z,1008.7
2018-12-07T08:10:06.613Z,1008.88
2018-12-07T08:11:06.383Z,1008.68
2018-12-07T08:12:06.354Z,1008.73
2018-12-07T08:13:06.670Z,1009.05
2018-12-07T08:14:06.382Z,1008.67
2018-12-07T08:20:48.734Z,1009.02
2018-12-07T08:21:48.909Z,1008.96
2018-12-07T08:29:15.632Z,1008.87
2018-12-07T08:29:28.814Z,1008.95
2018-12-07T08:30:30.080Z,1009.07
2018-12-07T08:31:28.820Z,1009.14
2018-12-07T08:32:28.807Z,1009.54
2018-12-07T08:33:28.827Z,1009.49
2018-12-07T08:34:28.822Z,1009.48
2018-12-07T08:35:28.812Z,1009.68
2018-12-07T08:36:28.835Z,1009.74
2018-12-07T08:37:28.812Z,1009.94
2018-12-07T08:38:28.820Z,1010.21
2018-12-07T08:39:28.813Z,1010.91
2018-12-07T08:40:29.102Z,1010.95
2018-12-07T08:41:28.827Z,1011.38
2018-12-07T08:42:28.847Z,1011.66
2018-12-07T08:45:17.127Z,1012.11
2018-12-07T08:46:17.069Z,1012.32
2018-12-07T08:47:17.064Z,1012.9
2018-12-07T08:48:17.085Z,1012.74
2018-12-07T08:49:17.076Z,1013.01
2018-12-07T08:50:17.093Z,1012.89
2018-12-07T08:51:17.070Z,1013.39
2018-12-07T08:52:17.098Z,1013.35
2018-12-07T08:53:17.070Z,1013.63
2018-12-07T08:54:17.052Z,1014.21
2018-12-07T08:55:17.259Z,1014.31
2018-12-07T08:56:17.102Z,1015.13
2018-12-07T08:57:17.094Z,1015.45
2018-12-07T08:58:17.074Z,1016.04
2018-12-07T08:59:17.098Z,1016.22
2018-12-07T09:00:17.102Z,1016.88
2018-12-07T09:01:17.062Z,1017.01
2018-12-07T09:02:17.093Z,1017.53
2018-12-07T09:03:17.088Z,1017.95
2018-12-07T09:04:17.394Z,1018.58
2018-12-07T09:05:17.188Z,1019.24
2018-12-07T09:06:17.098Z,1019.82
2018-12-07T09:07:17.813Z,1020.39
2018-12-07T09:08:17.087Z,1021.12
2018-12-07T09:09:17.097Z,1021.73
2018-12-07T09:10:17.115Z,1021.99
2018-12-07T09:11:17.105Z,1022.51
2018-12-07T09:12:17.142Z,1022.86
2018-12-07T09:13:17.114Z,1023.27
2018-12-07T09:14:17.103Z,1023.53
2018-12-07T09:15:17.219Z,1024.32
2018-12-07T09:16:17.099Z,1024.36
2018-12-07T09:17:17.103Z,1024.65
2018-12-07T09:18:17.120Z,1024.92
2018-12-07T09:19:17.114Z,1025.03
2018-12-07T09:20:17.128Z,1025.25
2018-12-07T09:21:17.128Z,1025.54
2018-12-07T09:22:17.308Z,1025.79
2018-12-07T09:23:17.115Z,1026.04
2018-12-07T09:24:17.141Z,1026.05
2018-12-07T09:25:17.164Z,1026.42
2018-12-07T09:26:17.147Z,1026.4
2018-12-07T09:27:17.140Z,1026.74
2018-12-07T09:28:17.453Z,1026.78
2018-12-07T09:29:17.311Z,1026.77
2018-12-07T09:30:17.165Z,1027.02
2018-12-07T09:31:25.464Z,1027.06
2018-12-07T09:32:17.154Z,1027.3
2018-12-07T09:33:17.139Z,1027.51
2018-12-07T09:34:17.134Z,1027.67
2018-12-07T09:35:17.281Z,1027.84
2018-12-07T09:36:17.147Z,1028.12
2018-12-07T09:37:17.139Z,1028.16
2018-12-07T09:38:17.493Z,1028.35
2018-12-07T09:39:17.168Z,1028.83
2018-12-07T09:40:17.310Z,1029.35
2018-12-07T09:41:17.166Z,1029.79
2018-12-07T09:42:17.143Z,1030.21
2018-12-07T09:43:17.149Z,1030.46
2018-12-07T09:44:17.530Z,1030.9
2018-12-07T09:45:30.849Z,1031.26
2018-12-07T09:46:17.170Z,1031.6
2018-12-07T09:47:17.166Z,1031.97
2018-12-07T09:48:17.161Z,1032.21
2018-12-07T09:49:17.167Z,1032.45
2018-12-07T09:50:17.160Z,1032.54
2018-12-07T09:51:17.165Z,1033.1
2018-12-07T09:52:17.221Z,1033.27
2018-12-07T09:53:17.179Z,1033.45
2018-12-07T09:54:17.178Z,1033.79
2018-12-07T09:55:17.224Z,1033.68
2018-12-07T09:56:17.180Z,1033.91
2018-12-07T09:57:17.165Z,1033.85
2018-12-07T09:58:17.174Z,1034.15
2018-12-07T09:59:17.249Z,1033.97
2018-12-07T10:00:17.187Z,1034.06
2018-12-07T10:02:02.317Z,1034.03
2018-12-07T10:03:02.298Z,1033.76
2018-12-07T10:04:02.607Z,1033.67
2018-12-07T10:05:02.266Z,1033.71
2018-12-07T10:06:02.341Z,1033.69
2018-12-07T10:07:02.401Z,1033.67
2018-12-07T10:08:02.275Z,1033.72
2018-12-07T10:09:02.360Z,1033.49
2018-12-07T10:10:02.292Z,1033.41
2018-12-07T10:11:02.404Z,1033.16
2018-12-07T10:12:02.384Z,1033.41
2018-12-07T10:13:07.830Z,1033.18
2018-12-07T10:14:02.289Z,1033.15
2018-12-07T10:15:02.338Z,1033.13
2018-12-07T10:16:02.398Z,1033.38
2018-12-07T10:17:21.387Z,1033.77
2018-12-07T10:18:21.400Z,1034.08
2018-12-07T10:19:21.376Z,1034.23
2018-12-07T10:20:21.680Z,1034.35
2018-12-07T10:21:21.442Z,1034.97
2018-12-07T10:22:21.391Z,1035.63
2018-12-07T10:23:21.387Z,1035.7
2018-12-07T10:24:21.431Z,1035.91
2018-12-07T10:25:21.382Z,1036.19
2018-12-07T10:26:21.409Z,1036.41
2018-12-07T10:27:21.428Z,1036.65
2018-12-07T10:28:21.487Z,1037
2018-12-07T10:29:21.401Z,1036.88
2018-12-07T10:30:21.423Z,1037.2
2018-12-07T10:31:21.405Z,1037.23
2018-12-07T10:35:51.350Z,1037.2
2018-12-07T10:36:51.717Z,1037.03
2018-12-07T10:37:50.861Z,1037.26
2018-12-07T10:38:50.893Z,1036.74
2018-12-07T10:39:50.853Z,1036.79
2018-12-07T10:40:50.903Z,1037.07
2018-12-07T10:41:50.843Z,1036.84
2018-12-07T10:42:50.986Z,1036.72
2018-12-07T10:43:50.907Z,1036.87
2018-12-07T10:44:50.941Z,1036.96
2018-12-07T10:45:50.862Z,1036.62
2018-12-07T10:46:51.017Z,1036.43
2018-12-07T10:47:50.875Z,1036.2
2018-12-07T10:48:50.988Z,1036.39
2018-12-07T10:49:51.130Z,1036.24
2018-12-07T10:50:50.929Z,1036.35
2018-12-07T10:51:50.889Z,1036.4
2018-12-07T10:52:50.957Z,1036.62
2018-12-07T10:53:50.883Z,1036.68
2018-12-07T10:54:51.059Z,1036.63
2018-12-07T10:55:51.002Z,1036.75
2018-12-07T10:56:50.998Z,1037.01
2018-12-07T10:57:50.890Z,1036.98
2018-12-07T10:59:06.004Z,1037.16
2018-12-07T10:59:51.223Z,1037.22
2018-12-07T11:00:50.928Z,1037.12
2018-12-07T11:01:50.925Z,1037.19
2018-12-07T11:02:50.987Z,1037.03
2018-12-07T11:03:50.903Z,1037.15
2018-12-07T11:04:51.009Z,1037.59
2018-12-07T11:05:50.937Z,1037.49
2018-12-07T11:06:51.063Z,1037.48
2018-12-07T11:07:50.901Z,1038.05
2018-12-07T11:08:51.153Z,1037.69
2018-12-07T11:09:51.208Z,1038.21
2018-12-07T11:10:51.466Z,1038.09
2018-12-07T11:11:52.428Z,1038.24
2018-12-07T11:12:54.077Z,1038.29
2018-12-07T11:13:51.918Z,1038.58
2018-12-07T11:14:51.001Z,1038.87
2018-12-07T11:15:50.933Z,1038.89
2018-12-07T11:16:51.328Z,1039.22
2018-12-07T11:17:50.942Z,1039.18
2018-12-07T11:18:51.050Z,1039.49
2018-12-07T11:19:50.922Z,1039.62
2018-12-07T11:20:51.016Z,1040.11
2018-12-07T11:21:51.007Z,1040.34
2018-12-07T11:22:50.966Z,1040.36
2018-12-07T11:23:50.944Z,1040.79
2018-12-07T11:24:51.030Z,1040.71
2018-12-07T11:25:50.951Z,1040.93
2018-12-07T11:26:51.010Z,1041.35
2018-12-07T11:27:50.948Z,1041.5
2018-12-07T11:29:14.586Z,1041.92
2018-12-07T11:29:50.980Z,1042.29
2018-12-07T11:30:51.044Z,1042.99
2018-12-07T11:31:50.994Z,1043.25
2018-12-07T11:32:51.107Z,1043.82
2018-12-07T11:33:50.976Z,1044.19
2018-12-07T11:34:51.027Z,1044.73
2018-12-07T11:35:50.952Z,1044.81
2018-12-07T11:36:51.033Z,1045.36
2018-12-07T11:37:50.968Z,1045.5
2018-12-07T11:38:51.013Z,1045.79
2018-12-07T11:39:50.961Z,1046.32
2018-12-07T11:40:51.013Z,1046.62
2018-12-07T11:41:50.967Z,1046.6
2018-12-07T11:42:51.121Z,1046.58
2018-12-07T11:43:50.991Z,1046.65
2018-12-07T11:44:51.020Z,1046.96
2018-12-07T11:45:50.995Z,1047.39
2018-12-07T11:46:51.179Z,1048.62
2018-12-07T11:47:50.968Z,1049.35
2018-12-07T11:48:51.118Z,1050.17
2018-12-07T11:49:50.965Z,1050.77
2018-12-07T11:50:51.069Z,1051.2
2018-12-07T11:51:50.984Z,1051.6
2018-12-07T11:52:51.094Z,1052
2018-12-07T11:53:50.972Z,1052.15
2018-12-07T11:54:51.079Z,1052.36
2018-12-07T11:55:50.970Z,1052.48
2018-12-07T11:56:51.032Z,1052.11
2018-12-07T11:57:51.558Z,1052.51
2018-12-07T11:59:06.961Z,1052.06
2018-12-07T11:59:57.090Z,1052.15
2018-12-07T12:00:51.087Z,1052.06
2018-12-07T12:01:51.033Z,1052.28
2018-12-07T12:02:54.083Z,1052.23
2018-12-07T12:03:51.041Z,1052.3
2018-12-07T12:04:51.107Z,1052.15
2018-12-07T12:05:51.002Z,1052.39
2018-12-07T12:06:51.095Z,1052.17
2018-12-07T12:07:55.447Z,1052.36
2018-12-07T12:08:51.088Z,1052.37
2018-12-07T12:09:51.293Z,1052.45
2018-12-07T12:10:51.227Z,1052.44
2018-12-07T12:11:51.452Z,1052.18
2018-12-07T12:12:52.042Z,1052.09
2018-12-07T12:13:51.322Z,1052.16
2018-12-07T12:14:51.132Z,1052.47
2018-12-07T12:15:51.081Z,1052.77
2018-12-07T12:16:51.165Z,1052.66
2018-12-07T12:17:51.008Z,1052.79
2018-12-07T12:18:51.123Z,1052.8
2018-12-07T12:19:51.059Z,1052.65
2018-12-07T12:20:51.371Z,1052.63
2018-12-07T12:21:51.072Z,1052.64
2018-12-07T12:22:51.037Z,1052.54
2018-12-07T12:23:53.709Z,1052.48
2018-12-07T12:24:51.062Z,1052.46
2018-12-07T12:29:20.698Z,1052.13
2018-12-07T12:30:20.648Z,1051.84
2018-12-07T12:31:20.670Z,1051.63
2018-12-07T12:32:20.635Z,1051.38
2018-12-07T12:33:20.808Z,1051.25
2018-12-07T12:34:20.635Z,1050.91
2018-12-07T12:35:21.512Z,1050.82
2018-12-07T12:36:23.676Z,1050.56
2018-12-07T12:37:20.711Z,1050.33
2018-12-07T12:38:20.671Z,1050.25
2018-12-07T12:39:20.955Z,1049.71
2018-12-07T12:40:28.023Z,1049.64
2018-12-07T12:41:22.782Z,1049.63
2018-12-07T12:42:21.312Z,1049.11
2018-12-07T12:43:20.877Z,1049.22
2018-12-07T12:44:20.673Z,1048.98
2018-12-07T12:45:21.008Z,1048.6
2018-12-07T12:46:20.616Z,1048.09
2018-12-07T12:47:20.628Z,1048.13
2018-12-07T12:48:24.340Z,1047.82
2018-12-07T12:49:20.659Z,1047.24
2018-12-07T12:50:20.674Z,1047.16
2018-12-07T12:51:20.684Z,1046.88
2018-12-07T12:52:20.685Z,1046.1
2018-12-07T12:53:20.720Z,1046
2018-12-07T12:54:20.663Z,1046
2018-12-07T12:55:20.661Z,1046.12
2018-12-07T12:56:20.647Z,1045.92
2018-12-07T12:57:20.654Z,1045.92
2018-12-07T12:58:20.655Z,1045.85
2018-12-07T13:00:03.328Z,1045.45
2018-12-07T13:01:03.362Z,1045.05
2018-12-07T13:02:03.311Z,1044.49
2018-12-07T13:03:03.362Z,1044.74
2018-12-07T13:04:03.322Z,1044.46
2018-12-07T13:05:03.362Z,1044.02
2018-12-07T13:06:03.414Z,1044.05
2018-12-07T13:07:03.668Z,1043.96
2018-12-07T13:08:03.345Z,1043.64